Time;durP1;ratioP1;P1;durP2;ratioP2;P2;SDS_P1;SDS_P2;PMS_P1;PMS_P2;Temp;Humidity;BMP_temperature;BMP_pressure;BME280_temperature;BME280_humidity;BME280_pressure;Samples;Min_cycle;Max_cycle;Signal;HPM_P1;HPM_P2
2023/10/13 00:01:58;;;;;;;26.35;16.42;;;18.40;99.90;;;;;;5069117;28;20115;-74
2023/10/13 00:04:25;;;;;;;24.63;17.17;;;18.40;99.90;;;;;;5074056;28;20036;-74
2023/10/13 00:06:56;;;;;;;28.88;16.13;;;18.20;99.90;;;;;;5067329;28;20119;-73
2023/10/13 00:09:32;;;;;;;23.85;15.90;;;18.00;99.90;;;;;;5069196;28;20537;-73
2023/10/13 00:11:58;;;;;;;27.52;17.98;;;18.00;99.90;;;;;;5069601;28;20039;-74
2023/10/13 00:14:33;;;;;;;35.88;19.42;;;17.90;99.90;;;;;;5069248;28;20382;-74
2023/10/13 00:17:07;;;;;;;34.72;18.02;;;17.80;99.90;;;;;;5073906;28;20027;-74
2023/10/13 00:19:44;;;;;;;30.83;17.33;;;17.80;99.90;;;;;;5067953;28;20028;-74
2023/10/13 00:22:10;;;;;;;32.92;17.75;;;17.80;99.90;;;;;;5067136;28;20021;-73
2023/10/13 00:24:42;;;;;;;28.85;19.05;;;17.70;99.90;;;;;;5069056;28;20510;-74
2023/10/13 00:30:16;;;;;;;34.13;18.23;;;17.70;99.90;;;;;;5076022;28;20040;-74
2023/10/13 00:32:42;;;;;;;35.25;19.92;;;17.70;99.90;;;;;;5068768;28;20056;-73
2023/10/13 00:35:12;;;;;;;31.63;18.17;;;17.70;99.90;;;;;;5069448;28;20027;-73
2023/10/13 00:37:44;;;;;;;29.58;16.75;;;17.50;99.90;;;;;;5068030;28;20025;-74
2023/10/13 00:42:59;;;;;;;36.63;17.85;;;17.50;99.90;;;;;;5069775;28;20115;-74
2023/10/13 00:45:28;;;;;;;29.02;18.17;;;17.60;99.90;;;;;;5078480;28;20076;-73
2023/10/13 00:47:57;;;;;;;32.67;18.00;;;17.60;99.90;;;;;;5068272;28;20111;-73
2023/10/13 00:50:23;;;;;;;36.45;19.83;;;17.60;99.90;;;;;;5068935;28;20440;-74
2023/10/13 00:52:56;;;;;;;39.33;19.58;;;17.50;99.90;;;;;;5075410;28;20028;-74
2023/10/13 00:55:22;;;;;;;35.60;19.67;;;17.40;99.90;;;;;;5068854;28;20025;-74
2023/10/13 00:57:59;;;;;;;40.20;20.05;;;17.40;99.90;;;;;;5075889;28;20120;-74
2023/10/13 01:00:28;;;;;;;37.85;18.10;;;17.30;99.90;;;;;;5068122;28;20028;-74
2023/10/13 01:02:58;;;;;;;35.13;18.65;;;17.50;99.90;;;;;;5072288;28;20028;-73
2023/10/13 01:05:26;;;;;;;36.67;19.25;;;17.50;99.90;;;;;;5072740;28;20087;-73
2023/10/13 01:07:54;;;;;;;31.50;19.63;;;17.40;99.90;;;;;;5073456;28;20590;-74
2023/10/13 01:10:26;;;;;;;33.58;19.80;;;17.40;99.90;;;;;;5078136;28;20028;-73
2023/10/13 01:12:52;;;;;;;30.83;16.95;;;17.40;99.90;;;;;;5077230;28;20111;-74
2023/10/13 01:15:21;;;;;;;33.78;17.13;;;17.40;99.90;;;;;;5070124;28;20126;-73
2023/10/13 01:17:48;;;;;;;35.63;17.90;;;17.30;99.90;;;;;;5073449;28;20029;-74
2023/10/13 01:20:24;;;;;;;31.58;16.70;;;17.30;99.90;;;;;;5074436;28;20463;-74
2023/10/13 01:22:55;;;;;;;28.40;15.77;;;17.30;99.90;;;;;;5074096;28;20020;-74
2023/10/13 01:25:27;;;;;;;30.88;16.42;;;17.50;99.90;;;;;;5073382;28;20032;-74
2023/10/13 01:27:53;;;;;;;30.67;16.40;;;17.50;99.90;;;;;;5077190;28;20125;-75
2023/10/13 01:30:23;;;;;;;30.38;15.50;;;17.50;99.90;;;;;;5077155;28;20086;-74
2023/10/13 01:32:53;;;;;;;22.40;14.18;;;17.50;99.90;;;;;;5070370;28;20039;-73
2023/10/13 01:35:24;;;;;;;34.38;17.17;;;17.50;99.90;;;;;;5072350;28;20249;-74
2023/10/13 01:37:50;;;;;;;31.73;15.32;;;17.50;99.90;;;;;;5075024;28;20064;-74
2023/10/13 01:40:19;;;;;;;29.27;14.00;;;17.30;99.90;;;;;;5075444;28;20041;-73
2023/10/13 01:42:55;;;;;;;24.17;13.88;;;17.50;99.90;;;;;;5074244;28;20388;-73
2023/10/13 01:45:21;;;;;;;27.05;14.80;;;17.60;99.90;;;;;;5072318;28;20068;-74
2023/10/13 01:47:50;;;;;;;25.13;13.55;;;17.60;99.90;;;;;;5071864;28;20035;-73
2023/10/13 01:50:27;;;;;;;30.55;14.80;;;17.60;99.90;;;;;;5071876;28;20017;-73
2023/10/13 01:53:00;;;;;;;22.52;12.93;;;17.60;99.90;;;;;;5069880;28;20398;-74
2023/10/13 01:55:26;;;;;;;24.87;14.33;;;17.60;99.90;;;;;;5072636;28;20134;-74
2023/10/13 01:57:54;;;;;;;21.90;13.15;;;17.60;99.90;;;;;;5075351;28;20103;-73
2023/10/13 02:00:20;;;;;;;26.92;14.50;;;17.60;99.90;;;;;;5070326;28;20198;-74
2023/10/13 02:02:49;;;;;;;21.73;12.73;;;17.60;99.90;;;;;;5075390;28;20107;-74
2023/10/13 02:05:16;;;;;;;26.08;13.25;;;17.50;99.90;;;;;;5071545;28;20035;-74
2023/10/13 02:07:45;;;;;;;25.58;12.85;;;17.50;99.90;;;;;;5073747;28;20047;-74
2023/10/13 02:10:12;;;;;;;26.27;13.20;;;17.60;99.90;;;;;;5072005;28;20029;-74
2023/10/13 02:12:43;;;;;;;22.27;12.57;;;17.60;99.90;;;;;;5069837;28;20032;-74
2023/10/13 02:15:21;;;;;;;22.23;12.88;;;17.70;99.90;;;;;;5071626;28;20045;-74
2023/10/13 02:17:51;;;;;;;24.58;12.15;;;17.70;99.90;;;;;;5069660;28;20021;-74
2023/10/13 02:20:18;;;;;;;22.75;12.90;;;17.70;99.90;;;;;;5074768;28;20060;-74
2023/10/13 02:22:49;;;;;;;25.27;11.82;;;17.70;99.90;;;;;;5080267;28;20016;-74
2023/10/13 02:25:42;;;;;;;21.55;10.98;;;17.60;99.90;;;;;;5072143;28;20081;-74
2023/10/13 02:28:02;;;;;;;22.95;12.95;;;17.70;99.90;;;;;;5069817;28;20033;-74
2023/10/13 02:30:29;;;;;;;22.38;11.15;;;17.70;99.90;;;;;;5071934;28;20046;-74
2023/10/13 02:32:55;;;;;;;26.33;12.40;;;17.70;99.90;;;;;;5072325;28;20040;-75
2023/10/13 02:35:29;;;;;;;20.85;11.45;;;17.80;99.90;;;;;;5074792;28;20509;-74
2023/10/13 02:37:58;;;;;;;22.58;12.63;;;17.80;99.90;;;;;;5077136;28;20028;-74
2023/10/13 02:40:23;;;;;;;25.20;10.75;;;17.80;99.90;;;;;;5072985;28;20025;-74
2023/10/13 02:42:49;;;;;;;22.08;11.65;;;17.80;99.90;;;;;;5071625;28;20042;-74
2023/10/13 02:45:15;;;;;;;24.85;12.77;;;17.80;99.90;;;;;;5071826;28;20453;-74
2023/10/13 02:47:44;;;;;;;20.40;11.70;;;17.80;99.90;;;;;;5083234;28;20111;-74
2023/10/13 02:50:12;;;;;;;22.67;12.73;;;17.90;99.90;;;;;;5074537;28;20037;-74
2023/10/13 02:52:41;;;;;;;22.48;10.55;;;17.90;99.90;;;;;;5076854;28;20496;-74
2023/10/13 02:55:14;;;;;;;24.13;10.77;;;17.90;99.90;;;;;;5074298;28;20032;-76
2023/10/13 02:57:40;;;;;;;26.33;12.13;;;17.90;99.90;;;;;;5071247;28;20025;-74
2023/10/13 03:00:15;;;;;;;22.30;12.20;;;17.80;99.90;;;;;;5069559;28;20636;-73
2023/10/13 03:02:44;;;;;;;22.75;11.32;;;17.80;99.90;;;;;;5068749;28;20036;-74
2023/10/13 03:05:13;;;;;;;23.60;11.18;;;17.70;99.90;;;;;;5063375;28;20430;-75
2023/10/13 03:07:45;;;;;;;22.48;10.73;;;17.50;99.90;;;;;;5063882;28;20108;-74
2023/10/13 03:10:11;;;;;;;18.63;9.90;;;17.50;99.90;;;;;;5067610;28;20028;-74
2023/10/13 03:12:38;;;;;;;25.35;10.52;;;17.50;99.90;;;;;;5065620;28;20493;-75
2023/10/13 03:15:17;;;;;;;22.23;12.18;;;17.50;99.90;;;;;;5066767;28;20565;-75
2023/10/13 03:17:44;;;;;;;18.17;10.00;;;17.50;99.90;;;;;;5062815;28;20071;-74
2023/10/13 03:20:15;;;;;;;20.55;10.30;;;17.80;99.90;;;;;;5065395;28;20493;-74
2023/10/13 03:22:45;;;;;;;18.88;11.20;;;17.80;99.90;;;;;;5067750;28;20020;-75
2023/10/13 03:26:08;;;;;;;18.52;10.10;;;17.90;99.90;;;;;;5067979;28;20041;-76
2023/10/13 03:30:35;;;;;;;19.02;9.48;;;17.90;99.90;;;;;;5067168;28;20360;-75
2023/10/13 03:33:07;;;;;;;23.30;10.07;;;17.90;99.90;;;;;;5064828;28;20529;-74
2023/10/13 03:35:45;;;;;;;21.65;11.13;;;17.80;99.90;;;;;;5064274;28;20025;-74
2023/10/13 03:38:17;;;;;;;19.65;10.32;;;17.80;99.90;;;;;;5076098;28;20025;-74
2023/10/13 03:40:56;;;;;;;26.27;10.60;;;17.80;99.90;;;;;;5067367;28;20036;-76
2023/10/13 03:43:22;;;;;;;20.77;11.18;;;17.80;99.90;;;;;;5072470;28;20049;-75
2023/10/13 03:45:52;;;;;;;21.08;10.68;;;17.80;99.90;;;;;;5070040;28;20470;-75
2023/10/13 03:51:02;;;;;;;25.70;11.82;;;17.80;99.90;;;;;;5063694;28;20040;-76
2023/10/13 03:53:33;;;;;;;20.05;10.43;;;17.70;99.90;;;;;;5068066;28;20028;-75
2023/10/13 03:56:11;;;;;;;18.63;11.10;;;17.70;99.90;;;;;;5064748;28;20082;-76
2023/10/13 03:58:47;;;;;;;23.00;10.68;;;17.70;99.90;;;;;;5069483;28;20466;-75
2023/10/13 04:01:17;;;;;;;22.25;11.23;;;17.70;99.90;;;;;;5065170;28;20032;-74
2023/10/13 04:03:57;;;;;;;17.52;9.48;;;17.80;99.90;;;;;;5064164;28;20099;-76
2023/10/13 04:17:22;;;;;;;20.65;9.40;;;17.70;99.90;;;;;;5062249;28;19918;-74
2023/10/13 04:36:14;;;;;;;20.23;10.32;;;17.50;99.90;;;;;;5060726;28;20086;-79
2023/10/13 04:41:36;;;;;;;20.98;9.82;;;17.60;99.90;;;;;;5060088;28;20524;-74
2023/10/13 04:44:23;;;;;;;20.48;10.00;;;17.60;99.90;;;;;;5060465;28;20044;-74
2023/10/13 06:29:35;;;;;;;19.95;8.63;;;17.50;99.90;;;;;;5069860;28;20062;-77
2023/10/13 06:32:01;;;;;;;17.92;8.45;;;17.40;99.90;;;;;;5073584;28;20047;-75
2023/10/13 06:34:47;;;;;;;15.25;8.55;;;17.50;99.90;;;;;;5070779;28;20601;-75
2023/10/13 06:37:23;;;;;;;13.70;7.72;;;17.50;99.90;;;;;;5075927;28;20115;-75
2023/10/13 06:39:49;;;;;;;22.67;8.52;;;17.50;99.90;;;;;;5074426;28;20057;-75
2023/10/13 06:42:16;;;;;;;17.50;8.77;;;17.40;99.90;;;;;;5073733;28;20063;-76
2023/10/13 06:44:46;;;;;;;17.75;8.52;;;17.40;99.90;;;;;;5070443;28;20044;-76
2023/10/13 06:47:13;;;;;;;15.55;7.80;;;17.50;99.90;;;;;;5070002;28;20028;-75
2023/10/13 06:49:43;;;;;;;15.13;8.88;;;17.50;99.90;;;;;;5070952;28;20067;-78
2023/10/13 06:52:10;;;;;;;19.27;8.85;;;17.50;99.90;;;;;;5074922;28;20028;-77
2023/10/13 06:54:40;;;;;;;18.85;8.73;;;17.40;99.90;;;;;;5073664;28;20032;-75
2023/10/13 06:57:06;;;;;;;16.58;9.43;;;17.50;99.90;;;;;;5072130;28;20025;-75
2023/10/13 06:59:36;;;;;;;21.00;9.23;;;17.50;99.90;;;;;;5070731;28;20023;-75
2023/10/13 07:02:06;;;;;;;25.08;8.93;;;17.60;99.90;;;;;;5073624;28;20073;-78
2023/10/13 07:04:32;;;;;;;19.92;9.48;;;17.70;99.90;;;;;;5072465;28;20086;-75
2023/10/13 07:07:00;;;;;;;17.58;8.95;;;17.70;99.90;;;;;;5075222;28;20086;-76
2023/10/13 07:12:22;;;;;;;16.05;8.40;;;17.70;99.90;;;;;;5071958;28;20470;-75
2023/10/13 07:14:52;;;;;;;15.95;8.68;;;17.70;99.90;;;;;;5071819;28;20393;-78
2023/10/13 07:17:32;;;;;;;17.60;8.30;;;17.80;99.90;;;;;;5074904;28;20028;-75
2023/10/13 07:20:14;;;;;;;21.30;8.38;;;17.70;99.90;;;;;;5075630;28;20436;-76
2023/10/13 07:22:45;;;;;;;15.50;8.30;;;17.80;99.90;;;;;;5069774;28;20671;-75
2023/10/13 07:25:23;;;;;;;15.68;8.65;;;17.80;99.90;;;;;;5073028;28;20098;-77
2023/10/13 07:27:49;;;;;;;20.45;9.18;;;17.90;99.90;;;;;;5071422;28;20397;-76
2023/10/13 07:30:19;;;;;;;29.17;9.75;;;18.00;99.90;;;;;;5074358;28;20032;-76
2023/10/13 07:32:45;;;;;;;24.80;8.60;;;18.00;99.90;;;;;;5068429;28;20038;-73
2023/10/13 07:35:17;;;;;;;16.52;8.10;;;18.00;99.90;;;;;;5069963;28;20025;-74
2023/10/13 07:37:44;;;;;;;19.63;9.65;;;18.00;99.90;;;;;;5072902;28;20021;-74
2023/10/13 07:40:39;;;;;;;14.85;8.77;;;18.10;99.90;;;;;;5076817;28;20557;-75
2023/10/13 07:43:09;;;;;;;18.23;9.02;;;18.10;99.90;;;;;;5070366;28;20039;-74
2023/10/13 07:45:37;;;;;;;24.10;8.75;;;18.20;99.90;;;;;;5074029;28;20036;-74
2023/10/13 07:48:23;;;;;;;20.75;8.40;;;18.30;99.90;;;;;;5075142;28;20035;-73
2023/10/13 07:51:16;;;;;;;23.33;8.77;;;18.20;99.90;;;;;;5074673;28;20029;-74
2023/10/13 07:53:48;;;;;;;20.48;9.05;;;18.20;99.90;;;;;;5070895;28;20055;-74
2023/10/13 07:56:18;;;;;;;15.20;8.38;;;18.10;99.90;;;;;;5068285;28;20020;-75
2023/10/13 07:58:52;;;;;;;20.08;7.95;;;18.30;99.90;;;;;;5071574;28;20028;-74
2023/10/13 08:01:21;;;;;;;;;;;18.40;99.90;;;;;;5071936;28;20073;-74
2023/10/13 08:03:47;;;;;;;14.85;7.40;;;18.30;99.90;;;;;;5067876;28;19912;-75
2023/10/13 08:08:43;;;;;;;16.80;6.68;;;18.20;99.90;;;;;;5068684;28;20127;-74
2023/10/13 08:11:11;;;;;;;16.17;7.07;;;18.20;99.90;;;;;;5066412;28;20095;-75
2023/10/13 08:13:46;;;;;;;17.50;7.32;;;18.20;99.90;;;;;;5073537;28;20035;-75
2023/10/13 08:16:21;;;;;;;14.07;7.40;;;18.20;99.90;;;;;;5071601;28;20533;-74
2023/10/13 08:18:49;;;;;;;16.13;6.35;;;18.20;99.90;;;;;;5071710;28;20118;-74
2023/10/13 08:21:31;;;;;;;19.75;8.15;;;18.20;99.90;;;;;;5069710;28;20039;-76
2023/10/13 08:23:59;;;;;;;14.35;7.60;;;18.20;99.90;;;;;;5070675;28;20082;-75
2023/10/13 08:32:04;;;;;;;90.93;11.35;;;18.30;99.90;;;;;;5077063;28;20028;-74
2023/10/13 08:34:38;;;;;;;20.55;8.38;;;18.30;99.90;;;;;;5072563;28;20115;-74
2023/10/13 08:37:28;;;;;;;24.20;7.80;;;18.30;99.90;;;;;;5070508;28;20024;-74
2023/10/13 08:39:58;;;;;;;18.05;7.70;;;18.40;99.90;;;;;;5074534;28;20028;-74
2023/10/13 08:53:44;;;;;;;15.32;7.18;;;18.30;99.90;;;;;;5072508;28;20032;-73
2023/10/13 09:01:39;;;;;;;18.65;7.50;;;18.60;99.90;;;;;;5074094;28;20028;-72
2023/10/13 09:09:39;;;;;;;22.52;8.32;;;18.70;99.90;;;;;;5072498;28;20036;-73
2023/10/13 09:12:19;;;;;;;15.70;8.75;;;18.60;99.90;;;;;;5072376;28;20120;-73
2023/10/13 09:15:59;;;;;;;21.02;7.72;;;18.70;99.90;;;;;;5073264;28;20506;-74
2023/10/13 09:23:07;;;;;;;18.52;8.27;;;18.80;99.90;;;;;;5071265;28;20370;-74
2023/10/13 09:25:37;;;;;;;18.67;8.02;;;18.80;99.90;;;;;;5076720;28;20123;-74
2023/10/13 09:28:31;;;;;;;24.95;8.40;;;18.90;99.90;;;;;;5071602;28;20116;-74
2023/10/13 09:30:57;;;;;;;17.85;8.20;;;18.80;99.90;;;;;;5074015;28;20029;-73
2023/10/13 09:33:32;;;;;;;16.55;8.60;;;18.90;99.90;;;;;;5072437;28;20035;-73
2023/10/13 09:35:59;;;;;;;11.70;6.78;;;19.00;99.90;;;;;;5071236;28;20024;-74
2023/10/13 09:38:28;;;;;;;16.70;7.15;;;18.90;99.90;;;;;;5071296;28;20022;-73
2023/10/13 09:40:57;;;;;;;18.60;8.73;;;19.10;99.90;;;;;;5076129;28;20036;-74
2023/10/13 09:43:28;;;;;;;17.02;7.97;;;19.20;99.90;;;;;;5073758;28;20031;-73
2023/10/13 09:46:04;;;;;;;18.65;7.43;;;19.20;99.90;;;;;;5077210;28;20037;-74
2023/10/13 09:48:35;;;;;;;18.38;7.90;;;19.30;99.90;;;;;;5077578;28;20021;-74
2023/10/13 09:51:08;;;;;;;20.48;7.47;;;19.30;99.90;;;;;;5078469;28;20051;-76
2023/10/13 09:53:37;;;;;;;15.68;8.48;;;19.50;99.90;;;;;;5072375;28;20076;-74
2023/10/13 09:56:13;;;;;;;17.90;7.70;;;19.40;99.90;;;;;;5072206;28;20242;-75
2023/10/13 09:58:51;;;;;;;15.95;8.05;;;19.40;99.90;;;;;;5071999;28;20093;-74
2023/10/13 10:01:30;;;;;;;16.13;8.75;;;19.50;99.90;;;;;;5072548;28;20017;-73
2023/10/13 10:04:19;;;;;;;20.42;8.75;;;19.40;99.90;;;;;;5074363;28;20040;-74
2023/10/13 10:06:55;;;;;;;18.92;8.93;;;19.50;99.90;;;;;;5076702;28;20043;-73
2023/10/13 10:09:34;;;;;;;19.08;8.77;;;19.50;99.90;;;;;;5076532;28;20247;-74
2023/10/13 10:12:33;;;;;;;21.83;8.80;;;19.40;99.90;;;;;;5074192;28;20157;-74
2023/10/13 10:15:30;;;;;;;22.70;8.90;;;19.50;99.90;;;;;;5033639;28;20039;-74
2023/10/13 10:17:56;;;;;;;19.48;8.30;;;19.80;99.90;;;;;;5069847;28;20523;-73
2023/10/13 10:20:51;;;;;;;22.77;8.80;;;19.90;99.90;;;;;;5074530;28;20113;-74
2023/10/13 10:23:30;;;;;;;14.27;8.38;;;19.90;99.90;;;;;;5073512;28;20047;-76
2023/10/13 10:26:08;;;;;;;17.42;8.48;;;20.20;99.90;;;;;;5074531;28;20149;-74
2023/10/13 10:28:39;;;;;;;15.75;7.97;;;20.20;99.90;;;;;;5074643;28;20020;-73
2023/10/13 10:31:09;;;;;;;20.45;7.70;;;20.20;99.90;;;;;;5077759;28;20497;-74
2023/10/13 10:33:35;;;;;;;21.88;8.68;;;20.10;99.90;;;;;;5068914;28;20042;-74
2023/10/13 10:36:01;;;;;;;16.42;7.18;;;20.10;99.90;;;;;;5076783;28;20024;-73
2023/10/13 10:41:06;;;;;;;16.25;7.50;;;20.30;99.90;;;;;;5075265;28;20346;-73
2023/10/13 10:43:45;;;;;;;17.88;8.05;;;20.30;99.90;;;;;;5080590;28;20028;-74
2023/10/13 10:46:13;;;;;;;14.27;7.63;;;20.20;99.90;;;;;;5074396;28;20094;-73
2023/10/13 10:48:43;;;;;;;16.38;8.05;;;20.30;99.90;;;;;;5076268;28;20056;-74
2023/10/13 10:51:22;;;;;;;19.63;9.20;;;20.50;99.90;;;;;;5075452;28;20032;-74
2023/10/13 10:53:53;;;;;;;23.38;8.15;;;20.60;99.90;;;;;;5075936;28;20028;-74
2023/10/13 10:56:36;;;;;;;19.30;8.50;;;20.70;99.90;;;;;;5074235;28;20059;-73
2023/10/13 10:59:18;;;;;;;16.65;8.95;;;20.80;99.90;;;;;;5070189;28;20028;-73
2023/10/13 11:01:47;;;;;;;16.20;8.38;;;20.90;99.90;;;;;;5074294;28;20024;-75
2023/10/13 11:04:14;;;;;;;19.08;9.23;;;21.00;99.90;;;;;;5073998;28;20435;-75
2023/10/13 11:07:00;;;;;;;20.77;8.07;;;21.00;99.90;;;;;;5075229;28;20051;-74
2023/10/13 11:09:52;;;;;;;15.82;8.30;;;21.20;99.90;;;;;;5073878;28;20021;-74
2023/10/13 11:12:26;;;;;;;19.95;11.25;;;21.30;99.90;;;;;;5073540;28;20426;-74
2023/10/13 11:15:21;;;;;;;24.20;10.90;;;21.30;99.90;;;;;;5073412;28;20082;-74
2023/10/13 11:17:51;;;;;;;24.27;9.40;;;21.40;99.90;;;;;;5074231;28;20035;-75
2023/10/13 11:20:25;;;;;;;19.95;9.85;;;21.50;99.90;;;;;;5076441;28;20025;-75
2023/10/13 11:22:52;;;;;;;14.90;8.57;;;21.40;99.90;;;;;;5074534;28;20043;-75
2023/10/13 11:25:34;;;;;;;20.75;9.02;;;21.20;99.90;;;;;;5074034;28;20442;-74
2023/10/13 11:28:28;;;;;;;19.33;8.10;;;21.30;99.90;;;;;;5073545;28;20027;-74
2023/10/13 11:30:58;;;;;;;20.08;8.88;;;21.20;99.90;;;;;;5072729;28;20566;-74
2023/10/13 11:33:28;;;;;;;19.67;8.93;;;21.30;99.90;;;;;;5076330;28;20029;-75
2023/10/13 11:35:55;;;;;;;22.65;9.00;;;21.10;99.90;;;;;;5075399;28;20550;-75
2023/10/13 11:41:21;;;;;;;16.65;8.88;;;21.30;99.90;;;;;;5075821;28;20147;-74
2023/10/13 11:51:45;;;;;;;36.45;11.63;;;21.40;99.90;;;;;;5074010;28;20035;-74
2023/10/13 11:54:17;;;;;;;21.67;9.82;;;21.50;99.90;;;;;;5075406;28;20478;-75
2023/10/13 11:56:44;;;;;;;24.65;10.85;;;21.70;99.90;;;;;;5072428;28;20025;-77
2023/10/13 11:59:17;;;;;;;25.70;13.20;;;21.80;99.90;;;;;;5067532;28;20028;-76
2023/10/13 12:04:49;;;;;;;26.63;12.40;;;21.60;99.90;;;;;;5068484;28;20071;-73
2023/10/13 12:07:23;;;;;;;18.33;10.48;;;21.60;99.90;;;;;;5072322;28;20024;-75
2023/10/13 12:10:49;;;;;;;20.42;11.45;;;21.80;99.90;;;;;;5067627;28;20030;-73
2023/10/13 12:12:44;;;;;;;22.63;11.10;;;22.20;99.90;;;;;;5062065;28;20040;-75
2023/10/13 12:15:24;;;;;;;20.25;11.68;;;22.30;99.90;;;;;;5068833;28;20024;-76
2023/10/13 12:17:51;;;;;;;21.27;11.30;;;22.10;99.90;;;;;;5068848;28;20077;-75
2023/10/13 12:20:32;;;;;;;22.75;11.20;;;22.30;99.90;;;;;;5074079;28;20024;-75
2023/10/13 12:23:09;;;;;;;23.52;12.30;;;22.60;99.90;;;;;;5067328;28;20498;-76
2023/10/13 12:25:44;;;;;;;44.55;14.85;;;22.70;99.90;;;;;;5068763;28;20543;-76
2023/10/13 12:28:18;;;;;;;25.77;12.38;;;22.80;99.90;;;;;;5068131;28;20032;-76
2023/10/13 12:30:52;;;;;;;18.88;10.70;;;22.90;99.90;;;;;;5069642;28;20027;-75
2023/10/13 12:33:25;;;;;;;30.40;12.98;;;23.00;99.90;;;;;;5070338;28;20020;-77
2023/10/13 12:36:03;;;;;;;24.00;12.95;;;23.20;99.90;;;;;;5072188;28;20032;-76
2023/10/13 12:52:15;;;;;;;24.70;13.18;;;23.30;99.40;;;;;;5072513;28;20032;-75
2023/10/13 12:54:42;;;;;;;29.02;12.43;;;23.30;99.00;;;;;;5068537;28;20024;-75
2023/10/13 12:57:09;;;;;;;17.27;10.60;;;23.50;98.70;;;;;;5072483;28;20466;-75
2023/10/13 12:59:35;;;;;;;24.88;12.45;;;23.50;98.60;;;;;;5072989;28;20032;-75
2023/10/13 13:02:06;;;;;;;64.13;13.57;;;23.50;98.50;;;;;;5073142;28;20040;-75
2023/10/13 13:04:36;;;;;;;26.83;12.32;;;23.50;98.10;;;;;;5075049;28;20028;-74
2023/10/13 13:07:05;;;;;;;21.25;11.55;;;23.40;98.20;;;;;;5075597;28;20039;-73
2023/10/13 13:09:32;;;;;;;21.30;12.15;;;23.40;98.10;;;;;;5075553;28;20028;-74
2023/10/13 13:11:58;;;;;;;23.35;12.10;;;23.30;98.20;;;;;;5073322;28;20138;-73
2023/10/13 13:14:30;;;;;;;23.83;11.57;;;23.30;98.40;;;;;;5069670;28;20252;-74
2023/10/13 13:17:05;;;;;;;27.05;12.40;;;23.30;98.50;;;;;;5073363;28;20036;-76
2023/10/13 13:19:40;;;;;;;31.73;11.85;;;23.30;98.50;;;;;;5071705;28;20028;-74
2023/10/13 13:22:13;;;;;;;24.80;12.32;;;23.40;98.20;;;;;;5073508;28;20036;-74
2023/10/13 13:24:45;;;;;;;18.63;11.25;;;23.40;98.40;;;;;;5073659;28;20048;-73
2023/10/13 13:27:17;;;;;;;21.85;11.68;;;23.30;98.20;;;;;;5074189;28;20025;-76
2023/10/13 13:29:43;;;;;;;20.05;10.98;;;23.30;98.70;;;;;;5071723;28;20677;-75
2023/10/13 13:32:19;;;;;;;19.92;12.57;;;23.40;98.80;;;;;;5073472;28;20035;-75
2023/10/13 13:34:54;;;;;;;20.52;11.20;;;23.50;98.70;;;;;;5072834;28;20083;-74
2023/10/13 13:37:20;;;;;;;20.13;11.55;;;23.60;98.80;;;;;;5072858;28;20503;-75
2023/10/13 13:39:46;;;;;;;22.27;10.95;;;23.70;98.60;;;;;;5071801;28;20036;-75
2023/10/13 13:42:17;;;;;;;21.10;10.95;;;23.70;98.30;;;;;;5064021;28;20057;-72
2023/10/13 13:44:46;;;;;;;19.27;11.38;;;23.70;98.20;;;;;;5072582;28;20478;-73
2023/10/13 13:47:16;;;;;;;16.65;10.60;;;23.70;98.30;;;;;;5074165;28;21169;-75
2023/10/13 13:49:52;;;;;;;22.88;11.02;;;23.50;98.20;;;;;;5070776;28;20020;-74
2023/10/13 13:52:21;;;;;;;29.80;12.48;;;23.50;98.10;;;;;;5072229;28;20153;-74
2023/10/13 13:54:47;;;;;;;22.90;10.93;;;23.40;98.40;;;;;;5070510;28;20025;-74
2023/10/13 13:57:13;;;;;;;22.45;11.48;;;23.40;98.50;;;;;;5070155;28;20497;-74
2023/10/13 13:59:43;;;;;;;25.70;11.20;;;23.40;98.70;;;;;;5069616;28;20029;-74
2023/10/13 14:02:19;;;;;;;29.25;11.95;;;23.40;98.90;;;;;;5071645;28;20036;-74
2023/10/13 14:04:50;;;;;;;29.77;11.60;;;23.40;99.00;;;;;;5066536;28;20040;-74
2023/10/13 14:07:19;;;;;;;22.60;10.38;;;23.30;99.20;;;;;;5081798;28;20055;-74
2023/10/13 14:09:51;;;;;;;20.30;11.48;;;23.20;99.10;;;;;;5069743;28;20689;-72
2023/10/13 14:12:29;;;;;;;22.75;11.05;;;23.20;99.60;;;;;;5067252;28;20082;-72
2023/10/13 14:14:56;;;;;;;20.52;11.27;;;23.20;99.10;;;;;;5081026;28;20028;-72
2023/10/13 14:17:35;;;;;;;19.17;10.95;;;23.20;99.20;;;;;;5081629;28;21333;-76
2023/10/13 14:20:09;;;;;;;21.90;10.98;;;23.20;99.50;;;;;;5067161;28;20032;-75
2023/10/13 14:22:37;;;;;;;26.30;10.70;;;23.30;99.50;;;;;;5072286;28;20120;-76
2023/10/13 14:25:08;;;;;;;22.27;10.70;;;23.20;99.30;;;;;;5080586;28;20047;-77
2023/10/13 14:27:35;;;;;;;20.02;10.38;;;23.20;99.30;;;;;;5066994;28;20020;-75
2023/10/13 14:30:02;;;;;;;17.63;10.10;;;23.10;99.00;;;;;;5067737;28;20108;-74
2023/10/13 14:32:28;;;;;;;23.88;10.55;;;23.20;98.90;;;;;;5065037;28;20162;-74
2023/10/13 14:34:55;;;;;;;24.92;10.63;;;23.00;99.20;;;;;;5065094;28;20119;-79
2023/10/13 14:37:31;;;;;;;24.98;11.77;;;22.80;99.20;;;;;;5069715;28;20037;-78
2023/10/13 14:39:58;;;;;;;17.48;10.50;;;22.70;99.20;;;;;;5086967;28;20046;-75
2023/10/13 14:42:25;;;;;;;19.85;11.15;;;22.70;99.20;;;;;;5075483;28;20024;-75
2023/10/13 14:44:55;;;;;;;23.08;10.32;;;22.60;99.70;;;;;;5077036;28;20062;-76
2023/10/13 14:47:24;;;;;;;20.98;10.20;;;22.50;99.40;;;;;;5076690;28;20405;-75
2023/10/13 14:50:01;;;;;;;20.65;9.68;;;22.50;99.60;;;;;;5075715;28;20036;-76
2023/10/13 14:52:31;;;;;;;19.40;10.68;;;22.50;99.60;;;;;;5074228;28;20612;-75
2023/10/13 14:55:00;;;;;;;25.33;11.75;;;22.50;99.90;;;;;;5072120;28;20040;-75
2023/10/13 14:57:26;;;;;;;23.90;10.88;;;22.40;99.90;;;;;;5075724;28;20259;-75
2023/10/13 14:59:53;;;;;;;18.90;10.85;;;22.40;99.50;;;;;;5067681;28;20020;-75
2023/10/13 15:02:19;;;;;;;17.15;10.25;;;22.30;99.70;;;;;;5071613;28;20063;-76
2023/10/13 16:12:45;;;;;;;26.48;13.07;;;21.60;99.90;;;;;;5098483;27;20467;-73
2023/10/13 16:15:13;;;;;;;23.85;13.82;;;21.40;99.90;;;;;;5100273;28;20872;-73
2023/10/13 16:17:40;;;;;;;29.98;13.43;;;21.40;99.90;;;;;;5094654;28;20024;-73
2023/10/13 16:20:15;;;;;;;23.55;13.05;;;21.30;99.90;;;;;;5094923;28;20035;-72
2023/10/13 16:22:45;;;;;;;24.70;12.80;;;21.30;99.90;;;;;;5097398;28;20036;-73
2023/10/13 16:25:12;;;;;;;20.15;11.82;;;21.30;99.90;;;;;;5099119;28;20035;-73
2023/10/13 16:27:43;;;;;;;21.77;12.00;;;21.30;99.90;;;;;;5102745;28;20031;-72
2023/10/13 16:30:19;;;;;;;21.52;11.48;;;21.10;99.90;;;;;;5103003;28;20494;-73
2023/10/13 16:32:45;;;;;;;16.67;10.95;;;21.10;99.90;;;;;;5096076;28;20639;-72
2023/10/13 16:35:18;;;;;;;18.83;12.75;;;21.10;99.90;;;;;;5091389;28;20481;-73
2023/10/13 16:37:45;;;;;;;22.33;11.93;;;21.10;99.90;;;;;;5088335;28;20034;-73
2023/10/13 16:40:15;;;;;;;29.15;12.75;;;21.10;99.90;;;;;;5089417;28;20033;-73
2023/10/13 16:42:41;;;;;;;20.40;12.00;;;20.90;99.90;;;;;;5095239;28;20064;-73
2023/10/13 16:45:20;;;;;;;23.38;12.77;;;20.90;99.90;;;;;;5086849;28;20111;-74
2023/10/13 16:47:50;;;;;;;19.15;11.40;;;20.70;99.90;;;;;;5088247;28;20042;-73
2023/10/13 16:50:16;;;;;;;18.88;11.15;;;20.70;99.90;;;;;;5086643;28;20850;-73
2023/10/13 17:05:18;;;;;;;20.77;12.52;;;20.80;99.90;;;;;;5100860;27;20395;-75
2023/10/13 17:07:46;;;;;;;31.35;13.55;;;20.90;99.90;;;;;;5103024;28;20085;-75
2023/10/13 17:10:14;;;;;;;23.08;13.05;;;21.00;99.90;;;;;;5101772;28;20024;-77
2023/10/13 17:12:40;;;;;;;23.02;13.00;;;21.00;99.90;;;;;;5061269;28;20440;-74
2023/10/13 17:15:13;;;;;;;24.13;10.45;;;21.00;99.90;;;;;;5063857;28;20031;-74
2023/10/13 17:17:42;;;;;;;18.02;9.40;;;20.80;99.90;;;;;;5065488;28;20028;-75
2023/10/13 17:20:09;;;;;;;20.90;11.55;;;20.70;99.90;;;;;;5063683;28;20080;-74
2023/10/13 17:22:36;;;;;;;17.17;10.40;;;20.60;99.90;;;;;;5065243;28;20387;-74
2023/10/13 17:25:03;;;;;;;19.65;11.85;;;20.50;99.90;;;;;;5068038;28;21060;-75
2023/10/13 17:27:32;;;;;;;17.10;10.57;;;20.40;99.90;;;;;;5069297;28;20031;-75
2023/10/13 17:29:59;;;;;;;20.33;10.95;;;20.20;99.90;;;;;;5079901;28;20048;-77
2023/10/13 17:32:24;;;;;;;21.13;11.32;;;20.20;99.90;;;;;;5079604;28;20550;-76
2023/10/13 17:34:51;;;;;;;22.38;11.75;;;20.10;99.90;;;;;;5065867;28;20033;-76
2023/10/13 17:37:17;;;;;;;22.15;11.30;;;20.00;99.90;;;;;;5072299;28;20474;-77
2023/10/13 17:39:44;;;;;;;21.27;10.95;;;20.00;99.90;;;;;;5072453;28;20485;-75
2023/10/13 17:42:13;;;;;;;20.92;10.43;;;20.00;99.90;;;;;;5078507;28;20119;-75
2023/10/13 17:44:39;;;;;;;19.15;10.95;;;20.00;99.90;;;;;;5074278;28;20028;-76
2023/10/13 17:47:10;;;;;;;19.23;11.23;;;20.00;99.90;;;;;;5071980;28;20020;-76